createdAt,value
2022-12-17T00:02:16.175Z,9.64
2022-12-17T00:05:39.952Z,9.65
2022-12-17T00:09:03.601Z,9.68
2022-12-17T00:12:32.890Z,9.85
2022-12-17T00:15:57.656Z,9.56
2022-12-17T00:19:18.096Z,9.89
2022-12-17T00:22:42.369Z,9.62
2022-12-17T00:26:10.163Z,9.49
2022-12-17T00:29:34.335Z,9.62
2022-12-17T00:32:59.251Z,9.51
2022-12-17T00:36:23.537Z,9.23
2022-12-17T00:39:47.613Z,9.32
2022-12-17T00:43:18.546Z,9.03
2022-12-17T00:46:42.576Z,9.19
2022-12-17T00:50:07.568Z,9.14
2022-12-17T00:53:31.386Z,9.38
2022-12-17T00:56:56.337Z,9.58
2022-12-17T01:00:20.533Z,9.57
2022-12-17T01:03:44.368Z,9.39
2022-12-17T01:07:09.549Z,9.37
2022-12-17T01:10:33.344Z,9.35
2022-12-17T01:13:57.172Z,9.43
2022-12-17T01:17:32.573Z,9.47
2022-12-17T01:20:56.145Z,9.63
2022-12-17T01:24:21.310Z,9.35
2022-12-17T01:27:44.925Z,9.35
2022-12-17T01:31:08.886Z,9.26
2022-12-17T01:34:32.937Z,9.33
2022-12-17T01:37:57.041Z,9.42
2022-12-17T01:41:23.575Z,9.06
2022-12-17T01:45:14.787Z,9.27
2022-12-17T01:48:41.140Z,9.60
2022-12-17T01:52:04.874Z,9.53
2022-12-17T01:55:29.069Z,9.18
2022-12-17T01:58:55.093Z,9.44
2022-12-17T02:02:18.928Z,9.49
2022-12-17T02:05:51.770Z,9.63
2022-12-17T02:09:24.461Z,9.62
2022-12-17T02:12:56.441Z,9.36
2022-12-17T02:16:27.870Z,9.09
2022-12-17T02:20:03.239Z,9.35
2022-12-17T02:23:39.487Z,9.33
2022-12-17T02:27:06.893Z,9.19
2022-12-17T02:30:30.933Z,9.23
2022-12-17T02:33:55.054Z,9.29
2022-12-17T02:37:18.983Z,9.33
2022-12-17T02:40:44.380Z,9.51
2022-12-17T02:44:11.612Z,9.66
2022-12-17T02:47:37.649Z,9.57
2022-12-17T02:51:09.789Z,9.65
2022-12-17T02:54:33.352Z,9.68
2022-12-17T02:57:57.379Z,9.74
2022-12-17T03:01:23.234Z,9.62
2022-12-17T03:04:47.354Z,9.60
2022-12-17T03:08:11.499Z,9.59
2022-12-17T03:11:35.527Z,9.73
2022-12-17T03:14:59.503Z,9.82
2022-12-17T03:18:24.763Z,9.77
2022-12-17T03:21:48.705Z,9.70
2022-12-17T03:25:27.396Z,9.59
2022-12-17T03:28:51.090Z,9.64
2022-12-17T03:32:25.891Z,9.49
2022-12-17T03:35:51.418Z,9.51
2022-12-17T03:39:15.226Z,9.28
2022-12-17T03:42:39.350Z,9.60
2022-12-17T03:46:11.094Z,9.66
2022-12-17T03:49:35.222Z,9.85
2022-12-17T03:53:00.233Z,9.45
2022-12-17T03:56:23.957Z,9.79
2022-12-17T03:59:48.003Z,9.72
2022-12-17T04:03:12.315Z,9.89
2022-12-17T04:06:36.409Z,9.80
2022-12-17T04:10:01.085Z,9.64
2022-12-17T04:13:25.172Z,9.48
2022-12-17T04:16:49.443Z,9.57
2022-12-17T04:20:12.685Z,9.72
2022-12-17T04:23:36.788Z,9.66
2022-12-17T04:27:01.855Z,9.62
2022-12-17T04:30:26.946Z,9.73
2022-12-17T04:33:50.885Z,9.59
2022-12-17T04:37:14.636Z,9.87
2022-12-17T04:40:38.440Z,9.91
2022-12-17T04:44:03.799Z,9.89
2022-12-17T04:47:32.128Z,9.93
2022-12-17T04:50:55.863Z,9.69
2022-12-17T04:54:16.404Z,9.96
2022-12-17T04:57:41.953Z,9.98
2022-12-17T05:01:09.423Z,9.86
2022-12-17T05:04:33.492Z,9.82
2022-12-17T05:07:57.610Z,9.92
2022-12-17T05:11:22.642Z,10.10
2022-12-17T05:14:46.516Z,9.98
2022-12-17T05:18:11.785Z,10.07
2022-12-17T05:21:35.992Z,10.01
2022-12-17T05:24:59.968Z,10.13
2022-12-17T05:28:24.347Z,10.15
2022-12-17T05:31:47.985Z,10.07
2022-12-17T05:35:12.833Z,10.03
2022-12-17T05:38:36.870Z,9.91
2022-12-17T05:42:00.437Z,10.00
2022-12-17T05:45:24.820Z,10.06
2022-12-17T05:48:49.607Z,10.17
2022-12-17T05:52:26.581Z,10.23
2022-12-17T05:55:49.968Z,10.23
2022-12-17T05:59:13.744Z,10.22
2022-12-17T06:02:37.635Z,10.07
2022-12-17T06:06:01.933Z,10.12
2022-12-17T06:09:26.950Z,10.01
2022-12-17T06:12:51.307Z,9.86
2022-12-17T06:16:15.016Z,10.01
2022-12-17T06:19:39.179Z,10.02
2022-12-17T06:23:02.875Z,9.98
2022-12-17T06:26:27.509Z,10.00
2022-12-17T06:29:51.260Z,9.96
2022-12-17T06:33:22.624Z,9.98
2022-12-17T06:36:46.757Z,9.97
2022-12-17T06:40:10.776Z,9.89
2022-12-17T06:43:37.794Z,9.85
2022-12-17T06:47:01.883Z,9.95
2022-12-17T06:50:26.194Z,10.12
2022-12-17T06:53:58.092Z,10.02
2022-12-17T06:57:21.774Z,9.81
2022-12-17T07:00:46.983Z,9.47
2022-12-17T07:04:11.080Z,9.92
2022-12-17T07:07:34.996Z,9.98
2022-12-17T07:10:58.720Z,9.89
2022-12-17T07:14:22.452Z,9.56
2022-12-17T07:17:47.025Z,9.79
2022-12-17T07:21:12.440Z,9.87
2022-12-17T07:24:36.778Z,9.88
2022-12-17T07:28:00.415Z,9.83
2022-12-17T07:31:24.148Z,10.02
2022-12-17T07:34:49.911Z,10.14
2022-12-17T07:38:20.451Z,10.19
2022-12-17T07:41:44.865Z,10.10
2022-12-17T07:45:08.629Z,10.34
2022-12-17T07:48:32.828Z,10.30
2022-12-17T07:51:58.047Z,10.28
2022-12-17T07:55:22.311Z,10.49
2022-12-17T07:58:45.905Z,9.94
2022-12-17T08:02:10.129Z,10.22
2022-12-17T08:05:34.615Z,10.48
2022-12-17T08:08:59.825Z,10.35
2022-12-17T08:12:23.698Z,10.51
2022-12-17T08:16:02.090Z,10.64
2022-12-17T08:19:25.784Z,10.40
2022-12-17T08:22:49.260Z,10.46
2022-12-17T08:26:13.900Z,10.34
2022-12-17T08:29:37.972Z,10.53
2022-12-17T08:33:01.921Z,10.62
2022-12-17T08:36:25.518Z,10.61
2022-12-17T08:39:49.241Z,10.76
2022-12-17T08:43:16.565Z,11.19
2022-12-17T08:46:40.495Z,11.32
2022-12-17T08:50:04.550Z,10.79
2022-12-17T08:53:34.616Z,11.04
2022-12-17T08:56:59.223Z,11.13
2022-12-17T09:00:26.093Z,11.16
2022-12-17T09:03:55.361Z,11.02
2022-12-17T09:07:19.061Z,10.91
2022-12-17T09:10:42.881Z,11.27
2022-12-17T09:14:06.892Z,11.49
2022-12-17T09:17:31.740Z,11.75
2022-12-17T09:20:55.499Z,11.91
2022-12-17T09:24:19.730Z,11.84
2022-12-17T09:27:55.723Z,11.32
2022-12-17T09:31:19.933Z,11.19
2022-12-17T09:34:41.497Z,10.96
2022-12-17T09:38:10.909Z,10.71
2022-12-17T09:41:44.192Z,10.83
2022-12-17T09:45:11.905Z,10.59
2022-12-17T09:48:42.110Z,10.82
2022-12-17T09:52:07.664Z,11.14
2022-12-17T09:55:31.797Z,11.13
2022-12-17T09:58:57.271Z,11.06
2022-12-17T10:02:22.294Z,11.17
2022-12-17T10:05:49.874Z,10.94
2022-12-17T10:09:17.993Z,11.24
2022-12-17T10:12:41.886Z,11.40
2022-12-17T10:16:05.983Z,11.08
2022-12-17T10:19:34.332Z,11.12
2022-12-17T10:23:02.961Z,11.11
2022-12-17T10:26:24.257Z,11.29
2022-12-17T10:29:52.428Z,11.36
2022-12-17T10:33:16.664Z,11.13
2022-12-17T10:36:42.415Z,11.42
2022-12-17T10:40:14.358Z,11.66
2022-12-17T10:43:48.565Z,11.57
2022-12-17T10:47:16.064Z,11.52
2022-12-17T10:50:41.069Z,11.68
2022-12-17T10:54:08.572Z,11.42
2022-12-17T10:57:42.991Z,11.89
2022-12-17T11:01:08.399Z,11.57
2022-12-17T11:04:44.289Z,11.84
2022-12-17T11:08:08.678Z,12.05
2022-12-17T11:11:33.423Z,11.85
2022-12-17T11:15:07.020Z,12.00
2022-12-17T11:18:38.021Z,12.08
2022-12-17T11:22:04.052Z,12.33
2022-12-17T11:25:50.777Z,12.12
2022-12-17T11:29:14.575Z,12.60
2022-12-17T11:32:59.379Z,12.29
2022-12-17T11:36:38.796Z,12.41
2022-12-17T11:40:08.268Z,12.46
2022-12-17T11:43:40.186Z,12.29
2022-12-17T11:47:10.687Z,12.53
2022-12-17T11:50:42.943Z,12.65
2022-12-17T11:54:18.587Z,12.93
2022-12-17T11:57:47.447Z,13.26
2022-12-17T12:01:22.885Z,13.03
2022-12-17T12:05:04.221Z,12.93
2022-12-17T12:08:37.891Z,12.53
2022-12-17T12:12:13.027Z,12.64
2022-12-17T12:15:48.500Z,12.79
2022-12-17T12:19:24.626Z,13.06
2022-12-17T12:22:56.258Z,13.20
2022-12-17T12:26:32.273Z,13.25
2022-12-17T12:30:14.110Z,13.41
2022-12-17T12:33:50.764Z,13.20
2022-12-17T12:37:18.037Z,13.14
2022-12-17T12:40:53.153Z,13.00
2022-12-17T12:44:19.553Z,13.17
2022-12-17T12:47:55.393Z,12.66
2022-12-17T12:51:33.705Z,13.14
2022-12-17T12:55:10.880Z,13.09
2022-12-17T12:58:45.356Z,13.38
2022-12-17T13:02:24.266Z,13.23
2022-12-17T13:05:39.117Z,12.70
2022-12-17T13:08:45.285Z,12.78
2022-12-17T13:11:55.768Z,12.65
2022-12-17T13:15:19.617Z,12.90
2022-12-17T13:18:31.200Z,12.89
2022-12-17T13:21:39.315Z,12.98
2022-12-17T13:24:47.758Z,12.98
2022-12-17T13:27:54.304Z,12.69
2022-12-17T13:31:07.311Z,12.35
2022-12-17T13:34:20.454Z,12.71
2022-12-17T13:37:41.395Z,13.02
2022-12-17T13:40:57.972Z,12.27
2022-12-17T13:44:18.452Z,12.24
2022-12-17T13:47:26.392Z,12.07
2022-12-17T13:50:34.661Z,12.00
2022-12-17T13:53:53.997Z,12.13
2022-12-17T13:57:09.719Z,11.94
2022-12-17T14:00:22.938Z,11.83
2022-12-17T14:03:56.504Z,11.77
2022-12-17T14:07:00.019Z,11.82
2022-12-17T14:10:17.065Z,11.76
2022-12-17T14:13:23.419Z,11.85
2022-12-17T14:16:30.402Z,11.78
2022-12-17T14:19:38.362Z,11.97
2022-12-17T14:22:51.295Z,11.96
2022-12-17T14:25:59.842Z,11.93
2022-12-17T14:29:14.306Z,11.83
2022-12-17T14:32:26.485Z,11.60
2022-12-17T14:35:37.422Z,11.80
2022-12-17T14:38:54.694Z,11.84
2022-12-17T14:42:29.761Z,11.55
2022-12-17T14:45:56.562Z,11.71
2022-12-17T14:49:06.093Z,11.87
2022-12-17T14:52:15.793Z,11.82
2022-12-17T14:55:37.417Z,11.74
2022-12-17T14:58:47.924Z,11.70
2022-12-17T15:01:56.354Z,11.69
2022-12-17T15:05:04.012Z,11.70
2022-12-17T15:08:12.876Z,11.54
2022-12-17T15:11:21.999Z,11.42
2022-12-17T15:14:29.907Z,11.32
2022-12-17T15:17:36.346Z,11.51
2022-12-17T15:20:43.073Z,11.53
2022-12-17T15:23:50.097Z,11.48
2022-12-17T15:26:56.483Z,11.49
2022-12-17T15:30:05.868Z,11.63
2022-12-17T15:33:12.692Z,11.45
2022-12-17T15:36:19.258Z,11.62
2022-12-17T15:39:25.278Z,11.56
2022-12-17T15:42:49.514Z,11.52
2022-12-17T15:46:02.503Z,11.58
2022-12-17T15:49:08.599Z,11.60
2022-12-17T15:52:15.610Z,11.36
2022-12-17T15:55:21.892Z,11.58
2022-12-17T15:58:28.308Z,11.54
2022-12-17T16:01:36.785Z,11.59
2022-12-17T16:04:43.116Z,11.66
2022-12-17T16:07:49.342Z,11.45
2022-12-17T16:10:55.318Z,11.30
2022-12-17T16:14:01.615Z,11.35
2022-12-17T16:17:09.468Z,11.27
2022-12-17T16:20:15.797Z,11.14
2022-12-17T16:23:22.685Z,11.04
2022-12-17T16:26:29.304Z,10.91
2022-12-17T16:29:35.693Z,10.95
2022-12-17T16:32:43.588Z,10.81
2022-12-17T16:35:52.281Z,10.84
2022-12-17T16:38:59.052Z,10.75
2022-12-17T16:42:05.584Z,10.52
2022-12-17T16:45:12.387Z,10.79
2022-12-17T16:48:20.546Z,11.01
2022-12-17T16:51:29.773Z,10.88
2022-12-17T16:54:36.207Z,11.01
2022-12-17T16:57:42.282Z,10.93
2022-12-17T17:00:55.349Z,11.09
2022-12-17T17:04:04.571Z,10.97
2022-12-17T17:07:11.066Z,10.79
2022-12-17T17:10:17.408Z,10.95
2022-12-17T17:13:23.897Z,10.88
2022-12-17T17:16:30.529Z,10.74
2022-12-17T17:19:38.722Z,10.82
2022-12-17T17:22:45.155Z,10.82
2022-12-17T17:25:57.585Z,10.74
2022-12-17T17:29:05.695Z,10.83
2022-12-17T17:32:13.266Z,10.76
2022-12-17T17:35:21.289Z,10.81
2022-12-17T17:38:27.589Z,10.81
2022-12-17T17:41:35.247Z,10.49
2022-12-17T17:44:41.578Z,10.57
2022-12-17T17:47:48.151Z,10.61
2022-12-17T17:51:03.629Z,10.64
2022-12-17T17:54:14.235Z,10.80
2022-12-17T17:57:21.317Z,10.78
2022-12-17T18:00:27.793Z,10.53
2022-12-17T18:03:34.481Z,10.87
2022-12-17T18:07:02.706Z,10.71
2022-12-17T18:10:11.212Z,10.68
2022-12-17T18:13:34.955Z,10.75
2022-12-17T18:16:43.255Z,10.84
2022-12-17T18:19:50.350Z,10.91
2022-12-17T18:22:57.831Z,10.70
2022-12-17T18:26:10.019Z,10.91
2022-12-17T18:29:17.999Z,10.84
2022-12-17T18:32:24.325Z,10.92
2022-12-17T18:35:30.469Z,10.98
2022-12-17T18:38:38.330Z,11.01
2022-12-17T18:42:03.156Z,11.07
2022-12-17T18:45:10.058Z,11.29
2022-12-17T18:48:16.008Z,11.23
2022-12-17T18:51:23.274Z,11.20
2022-12-17T18:54:33.020Z,11.14
2022-12-17T18:57:39.258Z,11.05
2022-12-17T19:00:45.419Z,10.98
2022-12-17T19:03:51.638Z,10.89
2022-12-17T19:06:57.621Z,10.88
2022-12-17T19:10:05.810Z,10.80
2022-12-17T19:13:12.269Z,11.13
2022-12-17T19:16:20.830Z,11.19
2022-12-17T19:19:27.961Z,11.03
2022-12-17T19:22:34.243Z,10.93
2022-12-17T19:25:42.110Z,11.03
2022-12-17T19:28:50.483Z,11.07
2022-12-17T19:31:57.028Z,11.09
2022-12-17T19:35:03.617Z,10.97
2022-12-17T19:38:09.969Z,11.00
2022-12-17T19:41:19.315Z,10.99
2022-12-17T19:44:27.002Z,10.94
2022-12-17T19:47:33.382Z,10.95
2022-12-17T19:50:39.900Z,10.63
2022-12-17T19:53:47.314Z,10.81
2022-12-17T19:56:55.639Z,11.06
2022-12-17T20:00:01.998Z,10.76
2022-12-17T20:03:08.607Z,11.10
2022-12-17T20:06:16.342Z,11.07
2022-12-17T20:09:23.264Z,10.97
2022-12-17T20:12:30.909Z,10.97
2022-12-17T20:15:37.090Z,10.97
2022-12-17T20:18:43.801Z,10.83
2022-12-17T20:21:50.446Z,11.01
2022-12-17T20:24:57.058Z,11.01
2022-12-17T20:28:04.823Z,10.88
2022-12-17T20:31:11.403Z,11.17
2022-12-17T20:34:19.098Z,10.91
2022-12-17T20:37:25.568Z,10.99
2022-12-17T20:40:31.610Z,10.92
2022-12-17T20:43:40.069Z,10.90
2022-12-17T20:46:46.245Z,11.00
2022-12-17T20:49:52.150Z,11.18
2022-12-17T20:52:58.275Z,11.36
2022-12-17T20:56:07.634Z,11.30
2022-12-17T20:59:17.809Z,11.14
2022-12-17T21:02:24.506Z,11.24
2022-12-17T21:05:31.154Z,11.28
2022-12-17T21:08:38.176Z,11.25
2022-12-17T21:11:44.384Z,11.04
2022-12-17T21:14:52.016Z,10.99
2022-12-17T21:17:58.154Z,11.10
2022-12-17T21:21:07.445Z,11.28
2022-12-17T21:24:13.517Z,11.01
2022-12-17T21:27:20.679Z,11.11
2022-12-17T21:30:28.450Z,11.20
2022-12-17T21:33:34.860Z,11.10
2022-12-17T21:36:45.291Z,10.95
2022-12-17T21:39:56.515Z,11.13
2022-12-17T21:43:06.225Z,11.37
2022-12-17T21:46:15.343Z,11.34
2022-12-17T21:49:21.826Z,11.14
2022-12-17T21:52:28.357Z,10.86
2022-12-17T21:55:34.881Z,10.78
2022-12-17T21:58:41.964Z,10.90
2022-12-17T22:01:51.106Z,10.75
2022-12-17T22:04:57.821Z,10.72
2022-12-17T22:08:04.780Z,10.98
2022-12-17T22:11:12.202Z,10.91
2022-12-17T22:14:21.192Z,11.02
2022-12-17T22:17:28.912Z,10.92
2022-12-17T22:20:35.148Z,11.03
2022-12-17T22:23:43.341Z,10.98
2022-12-17T22:26:50.095Z,11.03
2022-12-17T22:30:14.104Z,10.97
2022-12-17T22:34:06.604Z,10.97
2022-12-17T22:39:25.147Z,10.97
2022-12-17T22:44:30.302Z,10.93
2022-12-17T22:44:51.401Z,10.65
2022-12-17T22:47:07.331Z,10.97
2022-12-17T22:50:15.286Z,10.90
2022-12-17T22:53:22.785Z,10.76
2022-12-17T22:56:51.985Z,10.97
2022-12-17T22:59:56.059Z,10.80
2022-12-17T23:03:03.125Z,10.42
2022-12-17T23:06:13.225Z,10.57
2022-12-17T23:09:21.213Z,10.51
2022-12-17T23:12:44.980Z,10.31
2022-12-17T23:15:53.192Z,10.36
2022-12-17T23:19:01.599Z,10.47
2022-12-17T23:22:09.453Z,10.56
2022-12-17T23:25:16.817Z,10.61
2022-12-17T23:28:23.157Z,10.49
2022-12-17T23:31:33.297Z,10.52
2022-12-17T23:34:39.703Z,10.34
2022-12-17T23:37:47.241Z,10.49
2022-12-17T23:40:53.367Z,10.69
2022-12-17T23:44:00.304Z,10.57
2022-12-17T23:47:07.022Z,10.64
2022-12-17T23:50:13.476Z,10.69
2022-12-17T23:53:21.427Z,10.24
2022-12-17T23:56:29.179Z,10.32
2022-12-17T23:59:35.480Z,10.56
